Time;durP1;ratioP1;P1;durP2;ratioP2;P2;SDS_P1;SDS_P2;PMS_P1;PMS_P2;Temp;Humidity;BMP_temperature;BMP_pressure;BME280_temperature;BME280_humidity;BME280_pressure;Samples;Min_cycle;Max_cycle;Signal;HPM_P1;HPM_P2
2021/12/08 00:01:43;;;;;;;13.93;11.07;;;2.50;99.90;;;;;;5052863;28;20229;-86
2021/12/08 00:04:11;;;;;;;14.70;10.90;;;2.40;99.90;;;;;;5052716;28;20225;-86
2021/12/08 00:06:40;;;;;;;15.13;11.50;;;2.40;99.90;;;;;;5053140;28;20198;-86
2021/12/08 00:09:25;;;;;;;10.68;9.43;;;2.40;99.90;;;;;;5052548;28;20271;-86
2021/12/08 00:14:41;;;;;;;14.33;10.23;;;2.30;99.90;;;;;;5052906;28;20213;-86
2021/12/08 00:17:10;;;;;;;17.90;11.93;;;2.30;99.90;;;;;;5052903;28;20233;-86
2021/12/08 00:19:38;;;;;;;14.43;12.00;;;2.20;99.90;;;;;;5052287;28;20270;-86
2021/12/08 00:22:06;;;;;;;15.33;10.83;;;2.10;99.90;;;;;;5052816;28;20274;-86
2021/12/08 00:24:35;;;;;;;12.20;10.90;;;2.10;99.90;;;;;;5052849;28;20293;-86
2021/12/08 00:27:03;;;;;;;12.43;11.10;;;2.10;99.90;;;;;;5052983;28;20236;-86
2021/12/08 00:29:33;;;;;;;19.50;13.13;;;2.00;99.90;;;;;;5052176;28;20206;-86
2021/12/08 00:32:03;;;;;;;12.90;10.77;;;2.00;99.90;;;;;;5052958;28;20292;-86
2021/12/08 00:34:32;;;;;;;13.97;11.50;;;2.00;99.90;;;;;;5052748;28;20233;-86
2021/12/08 00:37:01;;;;;;;14.30;12.10;;;2.00;99.90;;;;;;5052728;28;20232;-86
2021/12/08 00:39:29;;;;;;;16.03;11.23;;;2.00;99.90;;;;;;5052250;28;20220;-86
2021/12/08 00:41:58;;;;;;;12.65;11.05;;;1.90;99.90;;;;;;5052031;28;20289;-86
2021/12/08 00:44:26;;;;;;;17.80;10.67;;;1.90;99.90;;;;;;5052164;28;20236;-86
2021/12/08 00:46:55;;;;;;;13.43;11.70;;;1.90;99.90;;;;;;5052979;28;20205;-85
2021/12/08 00:49:24;;;;;;;12.37;9.73;;;1.90;99.90;;;;;;5052223;28;20248;-86
2021/12/08 00:51:54;;;;;;;15.77;12.63;;;1.90;99.90;;;;;;5053151;28;20202;-86
2021/12/08 00:54:22;;;;;;;13.30;11.10;;;1.80;99.90;;;;;;5052164;28;20297;-86
2021/12/08 00:56:50;;;;;;;15.83;11.60;;;1.90;99.90;;;;;;5051962;28;20293;-86
2021/12/08 00:59:19;;;;;;;13.90;11.83;;;1.80;99.90;;;;;;5051922;28;20261;-86
2021/12/08 01:01:47;;;;;;;14.80;11.83;;;1.80;99.90;;;;;;5052400;28;20313;-86
2021/12/08 01:04:16;;;;;;;13.73;12.13;;;1.80;99.90;;;;;;5052367;28;20216;-86
2021/12/08 01:06:46;;;;;;;14.65;11.93;;;1.80;99.90;;;;;;5053523;28;20201;-86
2021/12/08 01:09:16;;;;;;;20.00;12.47;;;1.70;99.90;;;;;;5055866;28;20225;-86
2021/12/08 01:11:46;;;;;;;22.00;12.83;;;1.70;99.90;;;;;;5056348;28;20232;-86
2021/12/08 01:14:18;;;;;;;12.27;10.97;;;1.70;99.90;;;;;;5056269;28;20201;-86
2021/12/08 01:16:47;;;;;;;17.90;13.20;;;1.70;99.90;;;;;;5056608;28;20284;-86
2021/12/08 01:19:18;;;;;;;17.43;14.70;;;1.70;99.90;;;;;;5055797;28;20293;-86
2021/12/08 01:21:48;;;;;;;17.70;13.63;;;1.70;99.90;;;;;;5055798;28;20285;-86
2021/12/08 01:24:16;;;;;;;16.73;13.87;;;1.70;99.90;;;;;;5055916;28;20293;-86
2021/12/08 01:26:45;;;;;;;14.80;12.67;;;1.80;99.90;;;;;;5055878;28;20297;-86
2021/12/08 01:29:13;;;;;;;16.87;13.17;;;1.80;99.90;;;;;;5055469;28;20325;-86
2021/12/08 01:31:43;;;;;;;15.70;12.47;;;1.80;99.90;;;;;;5056349;28;20285;-86
2021/12/08 01:34:13;;;;;;;14.07;12.27;;;1.70;99.90;;;;;;5055998;28;20210;-86
2021/12/08 01:36:41;;;;;;;20.30;13.73;;;1.60;99.90;;;;;;5055926;28;20273;-86
2021/12/08 01:39:11;;;;;;;13.97;11.87;;;1.60;99.90;;;;;;5055088;28;20245;-86
2021/12/08 01:41:40;;;;;;;18.90;12.93;;;1.50;99.90;;;;;;5055577;28;20317;-86
2021/12/08 01:46:55;;;;;;;17.47;12.80;;;1.40;99.90;;;;;;5055256;28;20309;-85
2021/12/08 01:49:24;;;;;;;15.73;12.10;;;1.40;99.90;;;;;;5054803;28;20217;-86
2021/12/08 01:51:52;;;;;;;17.33;13.03;;;1.30;99.90;;;;;;5055675;28;20194;-86
2021/12/08 01:54:25;;;;;;;15.90;13.87;;;1.30;99.90;;;;;;5055686;28;20229;-86
2021/12/08 01:56:54;;;;;;;14.73;12.47;;;1.30;99.90;;;;;;5055793;28;20209;-86
2021/12/08 01:59:23;;;;;;;15.27;13.03;;;1.30;99.90;;;;;;5055005;28;20236;-85
2021/12/08 02:01:51;;;;;;;23.23;16.60;;;1.30;99.90;;;;;;5055050;28;20283;-85
2021/12/08 02:04:20;;;;;;;24.67;15.60;;;1.30;99.90;;;;;;5055635;28;20270;-86
2021/12/08 02:06:51;;;;;;;20.87;15.33;;;1.30;99.90;;;;;;5055411;28;20232;-86
2021/12/08 02:09:19;;;;;;;16.70;14.73;;;1.30;99.90;;;;;;5055167;28;20236;-86
2021/12/08 02:11:53;;;;;;;20.23;14.63;;;1.30;99.90;;;;;;5054609;28;20316;-86
2021/12/08 02:14:21;;;;;;;18.03;13.40;;;1.40;99.90;;;;;;5055451;28;20210;-86
2021/12/08 02:16:55;;;;;;;26.30;13.97;;;1.40;99.90;;;;;;5055052;28;20201;-86
2021/12/08 02:19:25;;;;;;;23.93;15.30;;;1.30;99.90;;;;;;5054264;28;20229;-86
2021/12/08 02:21:55;;;;;;;16.57;13.83;;;1.30;99.90;;;;;;5054754;28;20222;-86
2021/12/08 02:24:24;;;;;;;20.83;14.43;;;1.40;99.90;;;;;;5055376;28;20206;-84
2021/12/08 02:26:54;;;;;;;20.07;15.30;;;1.40;99.90;;;;;;5054838;28;20237;-86
2021/12/08 02:29:33;;;;;;;18.33;13.53;;;1.40;99.90;;;;;;5054543;28;20293;-86
2021/12/08 02:32:07;;;;;;;24.30;15.17;;;1.40;99.90;;;;;;5055022;28;20222;-86
2021/12/08 02:48:27;;;;;;;23.13;16.03;;;1.30;99.90;;;;;;5054630;28;20225;-86
2021/12/08 02:50:57;;;;;;;20.00;14.77;;;1.30;99.90;;;;;;5054155;28;20297;-86
2021/12/08 02:53:27;;;;;;;18.97;15.40;;;1.40;99.90;;;;;;5054696;28;20296;-86
2021/12/08 02:55:55;;;;;;;22.87;15.70;;;1.40;99.90;;;;;;5054502;28;20292;-86
2021/12/08 02:58:24;;;;;;;20.57;17.07;;;1.30;99.90;;;;;;5054195;28;20245;-86
2021/12/08 03:00:56;;;;;;;18.03;14.50;;;1.30;99.90;;;;;;5054027;28;20287;-86
2021/12/08 03:03:25;;;;;;;22.20;15.33;;;1.30;99.90;;;;;;5054666;28;20201;-86
2021/12/08 03:05:55;;;;;;;16.60;14.17;;;1.30;99.90;;;;;;5054446;28;20206;-86
2021/12/08 03:08:23;;;;;;;31.20;14.60;;;1.30;99.90;;;;;;5054250;28;20252;-86
2021/12/08 03:10:54;;;;;;;22.87;16.13;;;1.30;99.90;;;;;;5053768;28;20288;-86
2021/12/08 03:13:30;;;;;;;24.00;16.60;;;1.30;99.90;;;;;;5053328;28;20296;-86
2021/12/08 03:15:59;;;;;;;21.80;15.70;;;1.20;99.90;;;;;;5054377;28;20209;-86
2021/12/08 03:18:33;;;;;;;20.17;16.00;;;1.20;99.90;;;;;;5054288;28;20253;-86
2021/12/08 03:21:03;;;;;;;24.10;16.83;;;1.20;99.90;;;;;;5053713;28;20233;-86
2021/12/08 03:23:37;;;;;;;23.57;16.57;;;1.20;99.90;;;;;;5054029;28;20289;-86
2021/12/08 03:26:07;;;;;;;18.70;15.17;;;1.20;99.90;;;;;;5054070;28;20210;-86
2021/12/08 03:28:42;;;;;;;21.50;15.17;;;1.20;99.90;;;;;;5054122;28;20346;-86
2021/12/08 03:31:15;;;;;;;21.30;15.63;;;1.20;99.90;;;;;;5053111;28;20296;-86
2021/12/08 03:33:44;;;;;;;23.70;16.47;;;1.20;99.90;;;;;;5053773;28;20221;-86
2021/12/08 03:36:12;;;;;;;22.80;15.47;;;1.20;99.90;;;;;;5053648;28;20293;-86
2021/12/08 03:38:44;;;;;;;23.47;15.77;;;1.20;99.90;;;;;;5053424;28;20224;-86
2021/12/08 03:41:14;;;;;;;23.27;15.90;;;1.30;99.90;;;;;;5053338;28;20297;-86
2021/12/08 03:43:43;;;;;;;21.97;15.80;;;1.20;99.90;;;;;;5053384;28;20202;-87
2021/12/08 03:46:13;;;;;;;23.67;15.63;;;1.20;99.90;;;;;;5053324;28;20209;-86
2021/12/08 03:48:48;;;;;;;21.07;15.67;;;1.20;99.90;;;;;;5052881;28;20272;-86
2021/12/08 03:51:17;;;;;;;24.73;17.97;;;1.20;99.90;;;;;;5053379;28;20301;-86
2021/12/08 03:53:46;;;;;;;20.13;15.90;;;1.10;99.90;;;;;;5053236;28;20214;-86
2021/12/08 03:56:16;;;;;;;20.20;16.77;;;1.20;99.90;;;;;;5053305;28;20301;-86
2021/12/08 03:58:45;;;;;;;22.70;17.23;;;1.20;99.90;;;;;;5052853;28;20260;-86
2021/12/08 04:01:13;;;;;;;21.63;16.57;;;1.20;99.90;;;;;;5053189;28;20245;-86
2021/12/08 04:03:48;;;;;;;28.37;17.50;;;1.20;99.90;;;;;;5052853;28;20249;-87
2021/12/08 04:06:28;;;;;;;25.67;18.10;;;1.20;99.90;;;;;;5053292;28;20232;-86
2021/12/08 04:08:57;;;;;;;24.90;15.90;;;1.20;99.90;;;;;;5052572;28;20320;-86
2021/12/08 04:11:27;;;;;;;23.90;16.63;;;1.10;99.90;;;;;;5053356;28;20253;-86
2021/12/08 04:13:59;;;;;;;32.10;17.27;;;1.10;99.90;;;;;;5053001;28;20284;-86
2021/12/08 04:16:31;;;;;;;28.73;16.83;;;1.00;99.90;;;;;;5052429;28;20284;-86
2021/12/08 04:19:00;;;;;;;30.93;17.67;;;0.90;99.90;;;;;;5052507;28;20260;-86
2021/12/08 04:21:29;;;;;;;30.97;17.60;;;0.90;99.90;;;;;;5053169;28;20202;-86
2021/12/08 04:23:58;;;;;;;23.27;16.77;;;0.80;99.90;;;;;;5052440;28;20252;-86
2021/12/08 04:26:32;;;;;;;25.13;16.50;;;0.70;99.90;;;;;;5053134;28;20256;-86
2021/12/08 04:29:01;;;;;;;27.90;18.80;;;0.50;99.90;;;;;;5052172;28;20315;-86
2021/12/08 04:31:34;;;;;;;20.63;17.43;;;0.50;99.90;;;;;;5052900;28;20261;-86
2021/12/08 04:34:07;;;;;;;25.70;19.57;;;0.50;99.90;;;;;;5053036;28;20194;-86
2021/12/08 04:36:40;;;;;;;20.90;15.30;;;0.40;99.90;;;;;;5052433;28;20244;-86
2021/12/08 04:39:13;;;;;;;27.60;18.67;;;0.40;99.90;;;;;;5052116;28;20389;-86
2021/12/08 04:41:48;;;;;;;27.50;18.30;;;0.40;99.90;;;;;;5052180;28;20296;-86
2021/12/08 04:44:26;;;;;;;26.20;17.60;;;0.40;99.90;;;;;;5052673;28;20292;-86
2021/12/08 04:47:18;;;;;;;24.63;17.10;;;0.30;99.90;;;;;;5052671;28;20220;-86
2021/12/08 04:50:25;;;;;;;23.33;17.13;;;0.30;99.90;;;;;;5052053;28;20297;-86
2021/12/08 04:53:23;;;;;;;26.87;15.63;;;0.30;99.90;;;;;;5052608;28;20206;-86
2021/12/08 05:01:35;;;;;;;24.63;17.37;;;0.20;99.90;;;;;;5052373;28;20356;-86
2021/12/08 05:04:30;;;;;;;22.97;17.43;;;0.20;99.90;;;;;;5052089;28;20229;-86
2021/12/08 05:07:15;;;;;;;25.03;16.77;;;0.20;99.90;;;;;;5052112;28;20237;-86
2021/12/08 05:09:47;;;;;;;23.60;17.33;;;0.20;99.90;;;;;;5051893;28;20301;-86
2021/12/08 05:12:18;;;;;;;26.07;18.03;;;0.20;99.90;;;;;;5051498;28;20293;-86
2021/12/08 05:14:53;;;;;;;23.70;16.50;;;0.30;99.90;;;;;;5051918;28;20201;-86
2021/12/08 05:17:25;;;;;;;33.57;19.23;;;0.30;99.90;;;;;;5052122;28;20240;-86
2021/12/08 05:19:58;;;;;;;21.20;16.17;;;0.30;99.90;;;;;;5051406;28;20218;-86
2021/12/08 05:22:29;;;;;;;21.70;16.67;;;0.20;99.90;;;;;;5052262;28;20273;-86
2021/12/08 05:25:00;;;;;;;21.23;16.60;;;0.20;99.90;;;;;;5051947;28;20284;-86
2021/12/08 05:27:33;;;;;;;24.87;16.30;;;0.30;99.90;;;;;;5052160;28;20276;-86
2021/12/08 05:30:08;;;;;;;33.07;17.23;;;0.20;99.90;;;;;;5051368;28;20198;-86
2021/12/08 05:32:37;;;;;;;23.53;16.90;;;0.20;99.90;;;;;;5052179;28;20201;-86
2021/12/08 05:35:08;;;;;;;25.53;17.70;;;0.20;99.90;;;;;;5051881;28;20226;-86
2021/12/08 05:37:37;;;;;;;17.93;14.37;;;0.20;99.90;;;;;;5052120;28;20234;-86
2021/12/08 05:40:10;;;;;;;26.97;16.67;;;0.10;99.90;;;;;;5051286;28;20289;-86
2021/12/08 05:42:38;;;;;;;22.00;16.93;;;0.10;99.90;;;;;;5051791;28;20321;-86
2021/12/08 05:45:11;;;;;;;17.73;14.67;;;0.10;99.90;;;;;;5051969;28;20240;-86
2021/12/08 05:47:42;;;;;;;26.30;16.47;;;0.00;99.90;;;;;;5051848;28;20248;-86
2021/12/08 05:50:13;;;;;;;22.63;15.40;;;0.00;99.90;;;;;;5051406;28;20253;-85
2021/12/08 05:52:41;;;;;;;20.20;14.57;;;0.00;99.90;;;;;;5051941;28;20288;-86
2021/12/08 05:55:10;;;;;;;22.30;14.70;;;0.00;99.90;;;;;;5054877;28;20265;-86
2021/12/08 05:57:43;;;;;;;22.23;16.13;;;0.00;99.90;;;;;;5055445;28;20337;-86
2021/12/08 06:00:19;;;;;;;20.17;14.87;;;0.00;99.90;;;;;;5055167;28;20256;-86
2021/12/08 06:02:48;;;;;;;19.33;15.40;;;0.00;99.90;;;;;;5055592;28;20224;-86
2021/12/08 06:05:17;;;;;;;19.97;15.10;;;0.00;99.90;;;;;;5055563;28;20275;-86
2021/12/08 06:07:46;;;;;;;26.20;14.87;;;0.00;99.90;;;;;;5055487;28;20313;-86
2021/12/08 06:10:18;;;;;;;27.77;15.50;;;-0.10;99.90;;;;;;5054906;28;20198;-86
2021/12/08 06:12:47;;;;;;;28.77;16.93;;;-0.10;99.90;;;;;;5055450;28;20476;-86
2021/12/08 06:15:18;;;;;;;17.53;15.40;;;-0.10;99.90;;;;;;5055415;28;20210;-86
2021/12/08 06:17:47;;;;;;;19.30;14.30;;;-0.10;99.90;;;;;;5055064;28;20290;-86
2021/12/08 06:20:18;;;;;;;26.37;15.57;;;-0.10;99.90;;;;;;5054609;28;20206;-86
2021/12/08 06:22:49;;;;;;;17.50;14.37;;;-0.10;99.90;;;;;;5055317;28;20213;-86
2021/12/08 06:25:19;;;;;;;25.20;15.70;;;-0.10;99.90;;;;;;5055014;28;20300;-86
2021/12/08 06:27:48;;;;;;;23.73;16.50;;;-0.10;99.90;;;;;;5054860;28;20314;-86
2021/12/08 06:30:21;;;;;;;13.60;11.80;;;-0.10;99.90;;;;;;5054799;28;20205;-86
2021/12/08 06:32:50;;;;;;;20.83;15.83;;;-0.10;99.90;;;;;;5054822;28;20229;-86
2021/12/08 06:35:26;;;;;;;19.00;14.70;;;-0.10;99.90;;;;;;5054973;28;20229;-86
2021/12/08 06:37:55;;;;;;;19.87;13.60;;;-0.20;99.90;;;;;;5055123;28;20232;-86
2021/12/08 06:40:27;;;;;;;16.47;12.73;;;-0.20;99.90;;;;;;5054305;28;20209;-86
2021/12/08 06:43:00;;;;;;;17.17;12.80;;;-0.10;99.90;;;;;;5054732;28;20285;-86
2021/12/08 06:45:35;;;;;;;19.27;13.67;;;-0.10;99.90;;;;;;5054700;28;20252;-86
2021/12/08 06:48:08;;;;;;;15.13;12.83;;;-0.10;99.90;;;;;;5054543;28;20244;-86
2021/12/08 06:50:44;;;;;;;19.67;13.03;;;0.00;99.90;;;;;;5054159;28;20313;-86
2021/12/08 06:53:12;;;;;;;12.77;11.40;;;0.00;99.90;;;;;;5054158;28;20292;-86
2021/12/08 06:55:46;;;;;;;13.20;11.80;;;0.00;99.90;;;;;;5054897;28;20201;-86
2021/12/08 06:58:19;;;;;;;19.17;11.83;;;0.00;99.90;;;;;;5054439;28;20248;-86
2021/12/08 07:01:01;;;;;;;19.73;12.10;;;0.00;99.90;;;;;;5053857;28;20206;-86
2021/12/08 07:03:38;;;;;;;14.47;11.40;;;0.00;99.90;;;;;;5054215;28;20234;-86
2021/12/08 07:06:19;;;;;;;16.70;11.20;;;0.00;99.90;;;;;;5054308;28;20209;-86
2021/12/08 07:08:52;;;;;;;13.80;11.23;;;0.00;99.90;;;;;;5054115;28;20229;-86
2021/12/08 07:11:23;;;;;;;13.37;11.40;;;0.10;99.90;;;;;;5054556;28;20233;-86
2021/12/08 07:13:54;;;;;;;12.40;11.07;;;0.10;99.90;;;;;;5054279;28;20285;-86
2021/12/08 07:16:33;;;;;;;17.17;12.30;;;0.10;99.90;;;;;;5054187;28;20232;-86
2021/12/08 07:19:09;;;;;;;14.63;11.17;;;0.10;99.90;;;;;;5053628;28;20229;-86
2021/12/08 07:21:43;;;;;;;15.90;11.37;;;0.10;99.90;;;;;;5054350;28;20204;-86
2021/12/08 07:24:14;;;;;;;12.67;10.30;;;0.10;99.90;;;;;;5053944;28;20283;-86
2021/12/08 07:26:47;;;;;;;16.20;10.80;;;0.10;99.90;;;;;;5053844;28;20260;-86
2021/12/08 07:29:22;;;;;;;14.30;10.33;;;0.10;99.90;;;;;;5053108;28;20198;-86
2021/12/08 07:31:57;;;;;;;13.87;10.77;;;0.20;99.90;;;;;;5053915;28;20257;-86
2021/12/08 07:34:27;;;;;;;15.93;11.57;;;0.20;99.90;;;;;;5053684;28;20205;-86
2021/12/08 07:37:13;;;;;;;17.47;11.63;;;0.20;99.90;;;;;;5053686;28;20233;-86
2021/12/08 07:39:58;;;;;;;12.60;10.63;;;0.20;99.90;;;;;;5052984;28;20210;-86
2021/12/08 07:42:30;;;;;;;11.13;9.63;;;0.20;99.90;;;;;;5053414;28;20209;-86
2021/12/08 07:45:02;;;;;;;15.23;11.50;;;0.20;99.90;;;;;;5053551;28;20253;-86
2021/12/08 07:47:32;;;;;;;12.50;11.20;;;0.30;99.90;;;;;;5053367;28;20245;-86
2021/12/08 07:50:07;;;;;;;23.27;12.13;;;0.30;99.90;;;;;;5052990;28;20214;-86
2021/12/08 07:52:40;;;;;;;19.23;12.47;;;0.30;99.90;;;;;;5053726;28;20285;-86
2021/12/08 07:55:16;;;;;;;16.83;11.83;;;0.30;99.90;;;;;;5053217;28;20239;-86
2021/12/08 07:57:45;;;;;;;15.97;11.20;;;0.30;99.90;;;;;;5053020;28;20241;-86
2021/12/08 08:00:18;;;;;;;13.70;10.33;;;0.40;99.90;;;;;;5052985;28;20205;-86
2021/12/08 08:02:49;;;;;;;15.83;10.30;;;0.40;99.90;;;;;;5053320;28;20288;-86
2021/12/08 08:05:19;;;;;;;11.93;10.40;;;0.40;99.90;;;;;;5052852;28;20245;-86
2021/12/08 08:07:48;;;;;;;14.23;10.70;;;0.40;99.90;;;;;;5053502;28;20252;-86
2021/12/08 08:10:19;;;;;;;10.17;9.17;;;0.40;99.90;;;;;;5052499;28;20213;-86
2021/12/08 08:12:57;;;;;;;11.20;9.53;;;0.40;99.90;;;;;;5053468;28;20288;-86
2021/12/08 08:15:30;;;;;;;13.00;9.57;;;0.40;99.90;;;;;;5053409;28;20305;-86
2021/12/08 08:18:06;;;;;;;12.23;9.93;;;0.50;99.90;;;;;;5052158;28;20312;-86
2021/12/08 08:20:38;;;;;;;11.10;9.90;;;0.50;99.90;;;;;;5052681;28;20233;-86
2021/12/08 08:23:07;;;;;;;15.27;11.17;;;0.50;99.90;;;;;;5053202;28;20225;-86
2021/12/08 08:25:39;;;;;;;15.07;9.60;;;0.60;99.90;;;;;;5052657;28;20309;-86
2021/12/08 08:28:08;;;;;;;10.67;9.53;;;0.60;99.90;;;;;;5053200;28;20226;-86
2021/12/08 08:30:40;;;;;;;11.07;9.63;;;0.60;99.90;;;;;;5052575;28;20206;-86
2021/12/08 08:33:11;;;;;;;11.37;9.73;;;0.60;99.90;;;;;;5052446;28;20288;-86
2021/12/08 08:35:42;;;;;;;14.63;11.53;;;0.60;99.90;;;;;;5052954;28;20198;-86
2021/12/08 08:38:20;;;;;;;13.23;10.17;;;0.60;99.90;;;;;;5052557;28;20225;-86
2021/12/08 08:40:55;;;;;;;12.87;9.77;;;0.60;99.90;;;;;;5052249;28;20267;-86
2021/12/08 08:43:24;;;;;;;11.37;9.83;;;0.60;99.90;;;;;;5052978;28;20209;-86
2021/12/08 08:45:55;;;;;;;11.90;10.07;;;0.60;99.90;;;;;;5052052;28;20278;-85
2021/12/08 08:48:29;;;;;;;12.17;9.17;;;0.70;99.90;;;;;;5052511;28;20245;-85
2021/12/08 08:51:06;;;;;;;11.30;9.60;;;0.70;99.90;;;;;;5052192;28;20243;-85
2021/12/08 08:53:37;;;;;;;10.60;9.50;;;0.70;99.90;;;;;;5052686;28;20201;-85
2021/12/08 08:56:10;;;;;;;12.73;10.87;;;0.80;99.90;;;;;;5051826;28;20197;-85
2021/12/08 08:58:42;;;;;;;17.43;10.77;;;0.80;99.90;;;;;;5051767;28;20221;-85
2021/12/08 09:01:20;;;;;;;12.93;10.03;;;0.90;99.90;;;;;;5052432;28;20209;-85
2021/12/08 09:03:54;;;;;;;20.00;12.77;;;0.80;99.90;;;;;;5052469;28;20267;-85
2021/12/08 09:06:26;;;;;;;13.87;10.10;;;0.90;99.90;;;;;;5052335;28;20225;-85
2021/12/08 09:08:55;;;;;;;15.13;9.80;;;0.90;99.90;;;;;;5051961;28;20233;-85
2021/12/08 09:11:28;;;;;;;10.63;9.63;;;0.90;99.90;;;;;;5051998;28;20217;-85
2021/12/08 09:14:02;;;;;;;13.60;11.17;;;1.00;99.90;;;;;;5051988;28;20198;-85
2021/12/08 09:16:33;;;;;;;10.93;9.43;;;1.00;99.90;;;;;;5052427;28;20201;-85
2021/12/08 09:19:09;;;;;;;12.60;9.77;;;1.00;99.90;;;;;;5051674;28;20222;-85
2021/12/08 09:21:43;;;;;;;12.53;9.83;;;1.00;99.90;;;;;;5052302;28;20224;-85
2021/12/08 09:24:21;;;;;;;13.27;10.60;;;1.00;99.90;;;;;;5052070;28;20289;-85
2021/12/08 09:26:53;;;;;;;11.73;9.87;;;1.10;99.90;;;;;;5052322;28;20248;-85
2021/12/08 09:29:26;;;;;;;14.30;9.33;;;1.10;99.90;;;;;;5055591;28;20352;-85
2021/12/08 09:31:58;;;;;;;12.33;9.20;;;1.20;99.90;;;;;;5056512;28;20488;-85
2021/12/08 09:34:33;;;;;;;9.17;8.23;;;1.30;99.90;;;;;;5056417;28;20218;-85
2021/12/08 09:37:07;;;;;;;10.13;9.07;;;1.50;99.90;;;;;;5056234;28;20216;-85
2021/12/08 09:39:40;;;;;;;13.30;10.13;;;1.50;99.90;;;;;;5055307;28;20265;-85
2021/12/08 09:42:12;;;;;;;11.33;9.40;;;1.60;99.90;;;;;;5055605;28;20237;-85
2021/12/08 09:44:45;;;;;;;11.97;8.87;;;1.50;99.90;;;;;;5056278;28;20286;-85
2021/12/08 09:47:14;;;;;;;10.37;8.57;;;1.60;99.90;;;;;;5055732;28;20260;-85
2021/12/08 09:49:47;;;;;;;10.93;8.93;;;1.70;99.90;;;;;;5055205;28;20217;-85
2021/12/08 09:52:17;;;;;;;10.13;8.13;;;1.80;99.90;;;;;;5055556;28;20202;-85
2021/12/08 09:54:45;;;;;;;10.23;8.37;;;1.90;99.90;;;;;;5055437;28;20263;-85
2021/12/08 09:57:15;;;;;;;8.97;8.07;;;2.10;99.90;;;;;;5055816;28;20229;-85
2021/12/08 09:59:47;;;;;;;10.30;8.83;;;2.20;99.90;;;;;;5055113;28;20210;-85
2021/12/08 10:02:25;;;;;;;10.52;9.43;;;2.30;99.90;;;;;;5055861;28;20220;-85
2021/12/08 10:04:56;;;;;;;10.52;8.43;;;2.60;99.90;;;;;;5055220;28;20280;-85
2021/12/08 10:07:26;;;;;;;13.45;9.60;;;2.70;99.90;;;;;;5055288;28;20304;-85
2021/12/08 10:09:55;;;;;;;12.73;9.57;;;2.90;99.90;;;;;;5055184;28;20257;-85
2021/12/08 10:12:23;;;;;;;9.47;8.17;;;3.00;99.90;;;;;;5055351;28;20296;-85
2021/12/08 10:14:52;;;;;;;11.60;9.83;;;3.00;99.90;;;;;;5055471;28;20226;-85
2021/12/08 10:17:21;;;;;;;8.30;7.43;;;2.90;99.90;;;;;;5055162;28;20246;-85
2021/12/08 10:22:45;;;;;;;11.43;8.25;;;3.30;99.90;;;;;;5130447;27;20574;-85
2021/12/08 10:25:16;;;;;;;8.68;7.78;;;3.90;99.90;;;;;;5131200;28;20238;-85
2021/12/08 10:28:06;;;;;;;9.77;7.85;;;4.20;99.90;;;;;;5130780;27;20239;-85
2021/12/08 10:30:41;;;;;;;7.60;6.80;;;4.50;99.90;;;;;;5130207;28;20199;-85
2021/12/08 10:36:46;;;;;;;11.07;8.45;;;5.20;99.90;;;;;;5128853;27;20235;-85
2021/12/08 10:39:24;;;;;;;11.73;7.97;;;5.20;99.90;;;;;;5130490;28;20243;-85
2021/12/08 10:42:03;;;;;;;10.27;7.88;;;5.80;99.90;;;;;;5130195;28;20222;-85
2021/12/08 10:44:52;;;;;;;8.45;7.00;;;6.30;99.90;;;;;;5130673;28;20203;-85
2021/12/08 10:47:29;;;;;;;9.80;8.27;;;6.40;99.90;;;;;;5130537;28;20323;-85
2021/12/08 10:55:38;;;;;;;11.30;8.10;;;6.30;99.90;;;;;;5130624;28;20230;-85
2021/12/08 10:58:07;;;;;;;5.80;5.30;;;6.20;99.90;;;;;;5129742;28;20292;-85
2021/12/08 11:00:39;;;;;;;8.18;7.13;;;6.30;99.90;;;;;;5129623;28;20234;-85
2021/12/08 11:03:11;;;;;;;9.63;7.32;;;5.80;99.90;;;;;;5130437;28;20203;-85
2021/12/08 11:05:46;;;;;;;13.95;7.72;;;5.70;99.90;;;;;;5130732;27;20229;-85
2021/12/08 11:08:26;;;;;;;8.65;6.45;;;6.00;99.90;;;;;;5130029;28;20265;-85
2021/12/08 11:10:59;;;;;;;6.22;5.65;;;6.10;99.90;;;;;;5129639;28;20218;-85
2021/12/08 11:13:30;;;;;;;6.78;5.93;;;6.20;99.90;;;;;;5129500;27;20203;-85
2021/12/08 11:16:05;;;;;;;6.70;6.07;;;6.50;99.90;;;;;;5129695;28;20234;-85
2021/12/08 11:18:38;;;;;;;7.63;6.22;;;6.70;99.90;;;;;;5129642;28;20254;-85
2021/12/08 11:21:15;;;;;;;5.82;5.22;;;6.80;99.90;;;;;;5129524;28;20215;-85
2021/12/08 11:24:06;;;;;;;6.82;5.30;;;7.00;99.90;;;;;;5129581;28;20202;-85
2021/12/08 11:26:41;;;;;;;6.82;4.90;;;7.20;99.90;;;;;;5129497;28;20286;-85
2021/12/08 11:29:11;;;;;;;5.35;4.85;;;7.40;99.90;;;;;;5128565;28;20248;-84
2021/12/08 11:31:42;;;;;;;7.40;4.88;;;7.20;99.90;;;;;;5129870;28;20222;-85
2021/12/08 11:34:17;;;;;;;9.57;5.75;;;7.00;99.90;;;;;;5115388;28;20203;-85
2021/12/08 11:36:47;;;;;;;5.22;4.72;;;6.40;99.90;;;;;;5115681;28;20207;-85
2021/12/08 11:39:18;;;;;;;6.38;5.28;;;6.10;99.90;;;;;;5115633;28;20298;-85
2021/12/08 11:41:50;;;;;;;6.38;5.78;;;5.70;99.90;;;;;;5115338;28;20215;-85
2021/12/08 11:44:20;;;;;;;5.88;5.28;;;5.40;99.90;;;;;;5115961;28;20211;-86
2021/12/08 11:47:02;;;;;;;5.70;5.20;;;5.30;99.90;;;;;;5115490;28;20207;-85
2021/12/08 11:49:31;;;;;;;4.88;4.47;;;5.40;99.90;;;;;;5115356;28;20231;-85
2021/12/08 11:52:02;;;;;;;5.90;5.40;;;5.30;99.90;;;;;;5115156;28;20222;-86
2021/12/08 11:54:37;;;;;;;7.82;6.25;;;5.00;99.90;;;;;;5115632;28;20268;-87
2021/12/08 11:57:18;;;;;;;5.35;4.85;;;4.80;99.90;;;;;;5115529;28;20260;-86
2021/12/08 12:00:04;;;;;;;8.02;5.43;;;4.70;99.90;;;;;;5114924;28;20206;-87
2021/12/08 12:02:35;;;;;;;5.57;5.07;;;4.80;99.90;;;;;;5115320;28;20299;-85
2021/12/08 12:05:07;;;;;;;6.22;5.22;;;4.90;99.90;;;;;;5115229;28;20199;-85
2021/12/08 12:07:38;;;;;;;5.15;4.75;;;5.40;99.90;;;;;;5114827;28;20224;-85
2021/12/08 12:10:09;;;;;;;18.67;4.97;;;6.00;99.90;;;;;;5114696;28;20207;-85
2021/12/08 12:12:41;;;;;;;8.63;5.68;;;6.30;99.90;;;;;;5115057;28;20291;-85
2021/12/08 12:15:11;;;;;;;5.28;4.78;;;6.10;99.90;;;;;;5115024;28;20207;-85
2021/12/08 12:17:40;;;;;;;7.53;5.20;;;5.90;99.90;;;;;;5114894;28;20228;-85
2021/12/08 12:20:15;;;;;;;5.03;4.60;;;5.60;99.90;;;;;;5114014;28;20254;-85
2021/12/08 12:23:01;;;;;;;4.82;4.43;;;5.40;99.90;;;;;;5114930;28;20266;-85
2021/12/08 12:25:37;;;;;;;7.70;5.60;;;5.10;99.90;;;;;;5114935;28;20282;-85
2021/12/08 12:28:26;;;;;;;5.55;4.45;;;5.10;99.90;;;;;;5115032;28;20314;-85
2021/12/08 12:31:06;;;;;;;5.20;4.80;;;4.90;99.90;;;;;;5114194;28;20283;-85
2021/12/08 12:33:42;;;;;;;7.88;5.95;;;4.80;99.90;;;;;;5114769;28;20207;-85
2021/12/08 12:36:20;;;;;;;5.25;4.53;;;4.60;99.90;;;;;;5114574;28;20207;-84
2021/12/08 12:38:49;;;;;;;6.22;5.22;;;4.50;99.90;;;;;;5114206;28;20220;-84
2021/12/08 12:41:28;;;;;;;4.60;4.13;;;4.60;99.90;;;;;;5114143;28;20196;-84
2021/12/08 12:44:20;;;;;;;5.60;4.18;;;4.60;99.90;;;;;;5113610;28;20231;-85
2021/12/08 12:47:22;;;;;;;4.57;4.15;;;4.50;99.90;;;;;;5114247;28;20211;-84
2021/12/08 12:50:11;;;;;;;5.07;4.57;;;4.60;99.90;;;;;;5113432;28;20203;-85
2021/12/08 12:52:41;;;;;;;5.00;4.50;;;4.50;99.90;;;;;;5114653;28;20200;-84
2021/12/08 12:55:13;;;;;;;4.72;4.25;;;4.40;99.90;;;;;;5114131;28;20238;-84
2021/12/08 12:58:18;;;;;;;5.20;4.70;;;4.40;99.90;;;;;;5114366;28;20252;-85
2021/12/08 13:00:53;;;;;;;4.45;4.07;;;4.30;99.90;;;;;;5113727;28;20275;-85
2021/12/08 13:03:36;;;;;;;4.30;3.55;;;4.30;99.90;;;;;;5114321;28;20222;-85
2021/12/08 13:06:07;;;;;;;6.38;4.90;;;4.30;99.90;;;;;;5114092;28;20223;-85
2021/12/08 13:08:38;;;;;;;4.72;4.03;;;4.30;99.90;;;;;;5114224;28;20280;-84
2021/12/08 13:11:45;;;;;;;4.20;3.60;;;4.20;99.90;;;;;;5113906;28;20215;-83
2021/12/08 13:14:25;;;;;;;4.32;3.90;;;4.20;99.90;;;;;;5113977;28;20236;-85
2021/12/08 13:17:20;;;;;;;5.53;3.78;;;4.20;99.90;;;;;;5114067;28;20234;-84
2021/12/08 13:19:51;;;;;;;3.53;3.22;;;4.20;99.90;;;;;;5112940;28;20211;-85
2021/12/08 13:22:47;;;;;;;7.70;4.00;;;4.20;99.90;;;;;;5113518;28;20240;-85
2021/12/08 13:25:40;;;;;;;5.40;3.95;;;4.20;99.90;;;;;;5113566;28;20200;-86
2021/12/08 13:28:13;;;;;;;4.13;3.75;;;4.20;99.90;;;;;;5113925;28;20219;-87
2021/12/08 13:30:52;;;;;;;6.10;3.83;;;4.10;99.90;;;;;;5112628;28;20223;-85
2021/12/08 13:33:41;;;;;;;7.57;4.55;;;4.10;99.90;;;;;;5113421;28;20246;-85
2021/12/08 13:36:32;;;;;;;3.90;3.60;;;4.10;99.90;;;;;;5113672;28;20204;-85
2021/12/08 13:39:11;;;;;;;4.63;4.22;;;4.10;99.90;;;;;;5110309;28;20251;-85
2021/12/08 13:41:41;;;;;;;3.92;3.53;;;4.10;99.90;;;;;;5113088;28;20211;-85
2021/12/08 13:44:22;;;;;;;4.63;3.70;;;4.10;99.90;;;;;;5113386;28;20254;-85
2021/12/08 13:46:52;;;;;;;4.15;3.47;;;4.00;99.90;;;;;;5113318;28;20307;-85
2021/12/08 13:49:26;;;;;;;4.60;4.10;;;4.00;99.90;;;;;;5112691;28;20287;-86
2021/12/08 13:52:16;;;;;;;7.95;4.25;;;4.00;99.90;;;;;;5113462;28;20200;-85